sensor_id;sensor_type;location;lat;lon;timestamp;P1;durP1;ratioP1;P2;durP2;ratioP2
25213;SDS011;13160;51.834;4.706;2023-05-07T00:00:04;53.25;;;42.30;;
25213;SDS011;13160;51.834;4.706;2023-05-07T00:02:35;49.85;;;42.25;;
25213;SDS011;13160;51.834;4.706;2023-05-07T00:05:04;52.88;;;41.60;;
25213;SDS011;13160;51.834;4.706;2023-05-07T00:07:36;53.17;;;42.35;;
25213;SDS011;13160;51.834;4.706;2023-05-07T00:10:05;49.25;;;40.22;;
25213;SDS011;13160;51.834;4.706;2023-05-07T00:12:35;51.42;;;41.88;;
25213;SDS011;13160;51.834;4.706;2023-05-07T00:15:04;50.90;;;41.83;;
25213;SDS011;13160;51.834;4.706;2023-05-07T00:17:34;51.17;;;40.53;;
25213;SDS011;13160;51.834;4.706;2023-05-07T00:20:04;49.47;;;41.33;;
25213;SDS011;13160;51.834;4.706;2023-05-07T00:22:35;55.45;;;42.50;;
25213;SDS011;13160;51.834;4.706;2023-05-07T00:25:04;48.88;;;38.83;;
25213;SDS011;13160;51.834;4.706;2023-05-07T00:27:33;49.30;;;39.90;;
25213;SDS011;13160;51.834;4.706;2023-05-07T00:30:02;49.92;;;38.00;;
25213;SDS011;13160;51.834;4.706;2023-05-07T00:32:31;47.70;;;38.90;;
25213;SDS011;13160;51.834;4.706;2023-05-07T00:35:00;44.60;;;37.03;;
25213;SDS011;13160;51.834;4.706;2023-05-07T00:37:28;48.25;;;38.03;;
25213;SDS011;13160;51.834;4.706;2023-05-07T00:39:59;49.80;;;37.90;;
25213;SDS011;13160;51.834;4.706;2023-05-07T00:42:30;44.03;;;37.72;;
25213;SDS011;13160;51.834;4.706;2023-05-07T00:44:59;46.15;;;36.47;;
25213;SDS011;13160;51.834;4.706;2023-05-07T00:47:27;46.17;;;36.53;;
25213;SDS011;13160;51.834;4.706;2023-05-07T00:49:56;45.08;;;35.97;;
25213;SDS011;13160;51.834;4.706;2023-05-07T00:52:26;42.38;;;34.00;;
25213;SDS011;13160;51.834;4.706;2023-05-07T00:54:55;42.50;;;32.95;;
25213;SDS011;13160;51.834;4.706;2023-05-07T00:57:25;40.67;;;32.42;;
25213;SDS011;13160;51.834;4.706;2023-05-07T00:59:53;38.83;;;32.17;;
25213;SDS011;13160;51.834;4.706;2023-05-07T01:02:22;37.65;;;31.15;;
25213;SDS011;13160;51.834;4.706;2023-05-07T01:04:51;37.63;;;31.27;;
25213;SDS011;13160;51.834;4.706;2023-05-07T01:07:20;37.08;;;31.42;;
25213;SDS011;13160;51.834;4.706;2023-05-07T01:09:49;41.10;;;34.47;;
25213;SDS011;13160;51.834;4.706;2023-05-07T01:12:17;42.95;;;35.53;;
25213;SDS011;13160;51.834;4.706;2023-05-07T01:14:48;38.83;;;34.60;;
25213;SDS011;13160;51.834;4.706;2023-05-07T01:17:16;45.78;;;36.38;;
25213;SDS011;13160;51.834;4.706;2023-05-07T01:19:45;46.13;;;37.30;;
25213;SDS011;13160;51.834;4.706;2023-05-07T01:22:16;44.05;;;35.72;;
25213;SDS011;13160;51.834;4.706;2023-05-07T01:24:58;42.28;;;36.72;;
25213;SDS011;13160;51.834;4.706;2023-05-07T01:27:28;40.78;;;36.30;;
25213;SDS011;13160;51.834;4.706;2023-05-07T01:29:56;41.58;;;34.67;;
25213;SDS011;13160;51.834;4.706;2023-05-07T01:32:26;38.90;;;34.70;;
25213;SDS011;13160;51.834;4.706;2023-05-07T01:35:00;36.60;;;32.55;;
25213;SDS011;13160;51.834;4.706;2023-05-07T01:37:33;41.35;;;34.05;;
25213;SDS011;13160;51.834;4.706;2023-05-07T01:40:02;36.60;;;31.55;;
25213;SDS011;13160;51.834;4.706;2023-05-07T01:42:33;36.70;;;32.53;;
25213;SDS011;13160;51.834;4.706;2023-05-07T01:45:03;33.30;;;29.83;;
25213;SDS011;13160;51.834;4.706;2023-05-07T01:47:33;34.33;;;30.67;;
25213;SDS011;13160;51.834;4.706;2023-05-07T01:50:02;33.38;;;29.90;;
25213;SDS011;13160;51.834;4.706;2023-05-07T01:52:37;32.10;;;28.88;;
25213;SDS011;13160;51.834;4.706;2023-05-07T01:55:06;32.45;;;27.65;;
25213;SDS011;13160;51.834;4.706;2023-05-07T01:57:35;28.95;;;25.85;;
25213;SDS011;13160;51.834;4.706;2023-05-07T02:00:05;30.17;;;25.90;;
25213;SDS011;13160;51.834;4.706;2023-05-07T02:02:36;28.38;;;25.15;;
25213;SDS011;13160;51.834;4.706;2023-05-07T02:05:06;27.65;;;24.60;;
25213;SDS011;13160;51.834;4.706;2023-05-07T02:07:37;27.10;;;24.35;;
25213;SDS011;13160;51.834;4.706;2023-05-07T02:10:06;25.45;;;22.88;;
25213;SDS011;13160;51.834;4.706;2023-05-07T02:12:35;27.92;;;23.50;;
25213;SDS011;13160;51.834;4.706;2023-05-07T02:15:04;24.77;;;21.88;;
25213;SDS011;13160;51.834;4.706;2023-05-07T02:17:34;28.67;;;22.45;;
25213;SDS011;13160;51.834;4.706;2023-05-07T02:20:04;22.70;;;20.30;;
25213;SDS011;13160;51.834;4.706;2023-05-07T02:22:41;24.73;;;22.05;;
25213;SDS011;13160;51.834;4.706;2023-05-07T02:25:09;23.67;;;21.25;;
25213;SDS011;13160;51.834;4.706;2023-05-07T02:27:37;23.40;;;20.90;;
25213;SDS011;13160;51.834;4.706;2023-05-07T02:30:06;23.23;;;20.73;;
25213;SDS011;13160;51.834;4.706;2023-05-07T02:32:36;26.83;;;21.33;;
25213;SDS011;13160;51.834;4.706;2023-05-07T02:35:05;25.15;;;20.52;;
25213;SDS011;13160;51.834;4.706;2023-05-07T02:37:34;24.65;;;21.92;;
25213;SDS011;13160;51.834;4.706;2023-05-07T02:40:05;23.27;;;20.88;;
25213;SDS011;13160;51.834;4.706;2023-05-07T02:42:35;23.83;;;20.95;;
25213;SDS011;13160;51.834;4.706;2023-05-07T02:45:04;25.40;;;21.92;;
25213;SDS011;13160;51.834;4.706;2023-05-07T02:47:34;22.77;;;20.30;;
25213;SDS011;13160;51.834;4.706;2023-05-07T02:50:03;23.92;;;20.90;;
25213;SDS011;13160;51.834;4.706;2023-05-07T02:52:33;26.20;;;20.80;;
25213;SDS011;13160;51.834;4.706;2023-05-07T02:55:02;24.27;;;21.08;;
25213;SDS011;13160;51.834;4.706;2023-05-07T02:57:33;25.77;;;20.95;;
25213;SDS011;13160;51.834;4.706;2023-05-07T03:00:09;25.02;;;20.75;;
25213;SDS011;13160;51.834;4.706;2023-05-07T03:02:40;25.52;;;20.77;;
25213;SDS011;13160;51.834;4.706;2023-05-07T03:05:12;24.40;;;20.58;;
25213;SDS011;13160;51.834;4.706;2023-05-07T03:07:40;24.73;;;21.30;;
25213;SDS011;13160;51.834;4.706;2023-05-07T03:10:13;25.52;;;21.55;;
25213;SDS011;13160;51.834;4.706;2023-05-07T03:12:42;25.27;;;20.85;;
25213;SDS011;13160;51.834;4.706;2023-05-07T03:15:10;24.85;;;20.92;;
25213;SDS011;13160;51.834;4.706;2023-05-07T03:17:39;22.63;;;20.17;;
25213;SDS011;13160;51.834;4.706;2023-05-07T03:20:08;24.10;;;20.73;;
25213;SDS011;13160;51.834;4.706;2023-05-07T03:22:39;24.33;;;20.92;;
25213;SDS011;13160;51.834;4.706;2023-05-07T03:25:09;26.63;;;21.25;;
25213;SDS011;13160;51.834;4.706;2023-05-07T03:27:39;26.73;;;21.35;;
25213;SDS011;13160;51.834;4.706;2023-05-07T03:30:08;25.92;;;21.10;;
25213;SDS011;13160;51.834;4.706;2023-05-07T03:32:38;25.95;;;21.13;;
25213;SDS011;13160;51.834;4.706;2023-05-07T03:35:07;29.63;;;21.65;;
25213;SDS011;13160;51.834;4.706;2023-05-07T03:37:36;27.83;;;21.52;;
25213;SDS011;13160;51.834;4.706;2023-05-07T03:40:05;25.88;;;22.40;;
25213;SDS011;13160;51.834;4.706;2023-05-07T03:42:38;28.23;;;21.80;;
25213;SDS011;13160;51.834;4.706;2023-05-07T03:45:08;29.92;;;23.08;;
25213;SDS011;13160;51.834;4.706;2023-05-07T03:47:37;27.45;;;22.60;;
25213;SDS011;13160;51.834;4.706;2023-05-07T03:50:06;28.00;;;23.27;;
25213;SDS011;13160;51.834;4.706;2023-05-07T03:52:35;27.23;;;23.25;;
25213;SDS011;13160;51.834;4.706;2023-05-07T03:55:04;29.83;;;23.48;;
25213;SDS011;13160;51.834;4.706;2023-05-07T03:57:33;26.75;;;23.85;;
25213;SDS011;13160;51.834;4.706;2023-05-07T04:00:04;27.02;;;23.45;;
25213;SDS011;13160;51.834;4.706;2023-05-07T04:02:35;30.50;;;23.60;;
25213;SDS011;13160;51.834;4.706;2023-05-07T04:05:04;29.45;;;23.50;;
25213;SDS011;13160;51.834;4.706;2023-05-07T04:07:32;33.22;;;23.80;;
25213;SDS011;13160;51.834;4.706;2023-05-07T04:10:01;32.33;;;24.02;;
25213;SDS011;13160;51.834;4.706;2023-05-07T04:12:29;29.02;;;24.60;;
25213;SDS011;13160;51.834;4.706;2023-05-07T04:14:58;32.20;;;24.98;;
25213;SDS011;13160;51.834;4.706;2023-05-07T04:17:29;30.60;;;24.85;;
25213;SDS011;13160;51.834;4.706;2023-05-07T04:19:57;31.13;;;24.52;;
25213;SDS011;13160;51.834;4.706;2023-05-07T04:22:26;30.17;;;24.90;;
25213;SDS011;13160;51.834;4.706;2023-05-07T04:24:54;30.58;;;24.75;;
25213;SDS011;13160;51.834;4.706;2023-05-07T04:27:23;31.10;;;25.20;;
25213;SDS011;13160;51.834;4.706;2023-05-07T04:29:52;29.05;;;24.95;;
25213;SDS011;13160;51.834;4.706;2023-05-07T04:32:22;30.13;;;25.50;;
25213;SDS011;13160;51.834;4.706;2023-05-07T04:34:52;30.35;;;24.85;;
25213;SDS011;13160;51.834;4.706;2023-05-07T04:37:21;28.65;;;24.10;;
25213;SDS011;13160;51.834;4.706;2023-05-07T04:39:50;27.88;;;24.05;;
25213;SDS011;13160;51.834;4.706;2023-05-07T04:42:19;28.10;;;25.00;;
25213;SDS011;13160;51.834;4.706;2023-05-07T04:44:47;29.05;;;24.45;;
25213;SDS011;13160;51.834;4.706;2023-05-07T04:47:20;26.50;;;22.60;;
25213;SDS011;13160;51.834;4.706;2023-05-07T04:49:48;29.30;;;24.25;;
25213;SDS011;13160;51.834;4.706;2023-05-07T04:52:18;28.40;;;24.33;;
25213;SDS011;13160;51.834;4.706;2023-05-07T04:54:47;33.40;;;25.00;;
25213;SDS011;13160;51.834;4.706;2023-05-07T04:57:15;29.50;;;25.38;;
25213;SDS011;13160;51.834;4.706;2023-05-07T04:59:44;33.63;;;25.98;;
25213;SDS011;13160;51.834;4.706;2023-05-07T05:02:15;28.88;;;25.77;;
25213;SDS011;13160;51.834;4.706;2023-05-07T05:04:47;30.48;;;25.75;;
25213;SDS011;13160;51.834;4.706;2023-05-07T05:07:16;38.35;;;27.75;;
25213;SDS011;13160;51.834;4.706;2023-05-07T05:09:45;34.08;;;27.52;;
25213;SDS011;13160;51.834;4.706;2023-05-07T05:12:14;32.67;;;26.73;;
25213;SDS011;13160;51.834;4.706;2023-05-07T05:14:42;32.22;;;26.98;;
25213;SDS011;13160;51.834;4.706;2023-05-07T05:17:11;32.17;;;26.75;;
25213;SDS011;13160;51.834;4.706;2023-05-07T05:19:40;30.13;;;25.92;;
25213;SDS011;13160;51.834;4.706;2023-05-07T05:22:08;30.60;;;26.73;;
25213;SDS011;13160;51.834;4.706;2023-05-07T05:24:38;32.28;;;27.38;;
25213;SDS011;13160;51.834;4.706;2023-05-07T05:27:07;29.38;;;26.30;;
25213;SDS011;13160;51.834;4.706;2023-05-07T05:29:35;32.55;;;27.75;;
25213;SDS011;13160;51.834;4.706;2023-05-07T05:32:06;33.08;;;28.08;;
25213;SDS011;13160;51.834;4.706;2023-05-07T05:34:35;31.55;;;28.25;;
25213;SDS011;13160;51.834;4.706;2023-05-07T05:37:03;33.70;;;28.40;;
25213;SDS011;13160;51.834;4.706;2023-05-07T05:39:32;33.13;;;29.25;;
25213;SDS011;13160;51.834;4.706;2023-05-07T05:42:02;32.50;;;28.92;;
25213;SDS011;13160;51.834;4.706;2023-05-07T05:44:31;37.55;;;29.80;;
25213;SDS011;13160;51.834;4.706;2023-05-07T05:46:59;33.10;;;29.50;;
25213;SDS011;13160;51.834;4.706;2023-05-07T05:49:28;34.33;;;29.23;;
25213;SDS011;13160;51.834;4.706;2023-05-07T05:51:56;35.00;;;30.33;;
25213;SDS011;13160;51.834;4.706;2023-05-07T05:54:25;38.13;;;31.90;;
25213;SDS011;13160;51.834;4.706;2023-05-07T05:56:53;39.40;;;30.98;;
25213;SDS011;13160;51.834;4.706;2023-05-07T05:59:23;37.38;;;31.73;;
25213;SDS011;13160;51.834;4.706;2023-05-07T06:01:52;36.88;;;32.65;;
25213;SDS011;13160;51.834;4.706;2023-05-07T06:04:21;37.45;;;32.38;;
25213;SDS011;13160;51.834;4.706;2023-05-07T06:06:49;37.30;;;33.05;;
25213;SDS011;13160;51.834;4.706;2023-05-07T06:09:17;38.50;;;33.30;;
25213;SDS011;13160;51.834;4.706;2023-05-07T06:11:49;38.28;;;34.10;;
25213;SDS011;13160;51.834;4.706;2023-05-07T06:14:18;43.50;;;36.30;;
25213;SDS011;13160;51.834;4.706;2023-05-07T06:16:48;44.05;;;36.42;;
25213;SDS011;13160;51.834;4.706;2023-05-07T06:19:16;44.40;;;35.63;;
25213;SDS011;13160;51.834;4.706;2023-05-07T06:21:49;41.08;;;33.35;;
25213;SDS011;13160;51.834;4.706;2023-05-07T06:24:18;43.28;;;34.03;;
25213;SDS011;13160;51.834;4.706;2023-05-07T06:26:49;41.33;;;34.60;;
25213;SDS011;13160;51.834;4.706;2023-05-07T06:29:18;45.33;;;36.22;;
25213;SDS011;13160;51.834;4.706;2023-05-07T06:31:49;45.08;;;35.58;;
25213;SDS011;13160;51.834;4.706;2023-05-07T06:34:17;46.85;;;37.05;;
25213;SDS011;13160;51.834;4.706;2023-05-07T06:36:46;46.40;;;36.00;;
25213;SDS011;13160;51.834;4.706;2023-05-07T06:39:15;45.30;;;35.78;;
25213;SDS011;13160;51.834;4.706;2023-05-07T06:41:43;50.05;;;37.83;;
25213;SDS011;13160;51.834;4.706;2023-05-07T06:44:12;49.15;;;39.42;;
25213;SDS011;13160;51.834;4.706;2023-05-07T06:46:41;47.80;;;38.00;;
25213;SDS011;13160;51.834;4.706;2023-05-07T06:49:11;47.38;;;38.05;;
25213;SDS011;13160;51.834;4.706;2023-05-07T06:51:41;48.67;;;37.38;;
25213;SDS011;13160;51.834;4.706;2023-05-07T06:54:09;46.20;;;37.40;;
25213;SDS011;13160;51.834;4.706;2023-05-07T06:56:38;51.83;;;39.53;;
25213;SDS011;13160;51.834;4.706;2023-05-07T06:59:06;51.58;;;38.95;;
25213;SDS011;13160;51.834;4.706;2023-05-07T07:01:35;56.70;;;41.22;;
25213;SDS011;13160;51.834;4.706;2023-05-07T07:04:04;59.78;;;42.70;;
25213;SDS011;13160;51.834;4.706;2023-05-07T07:06:33;51.78;;;42.35;;
25213;SDS011;13160;51.834;4.706;2023-05-07T07:09:02;60.65;;;42.20;;
25213;SDS011;13160;51.834;4.706;2023-05-07T07:11:30;59.40;;;43.63;;
25213;SDS011;13160;51.834;4.706;2023-05-07T07:13:59;60.85;;;48.40;;
25213;SDS011;13160;51.834;4.706;2023-05-07T07:16:27;52.97;;;45.35;;
25213;SDS011;13160;51.834;4.706;2023-05-07T07:18:56;48.50;;;40.42;;
25213;SDS011;13160;51.834;4.706;2023-05-07T07:21:24;48.70;;;37.67;;
25213;SDS011;13160;51.834;4.706;2023-05-07T07:23:55;40.72;;;35.03;;
25213;SDS011;13160;51.834;4.706;2023-05-07T07:26:23;42.33;;;36.83;;
25213;SDS011;13160;51.834;4.706;2023-05-07T07:28:51;44.78;;;35.60;;
25213;SDS011;13160;51.834;4.706;2023-05-07T07:31:20;41.08;;;35.13;;
25213;SDS011;13160;51.834;4.706;2023-05-07T07:33:48;45.17;;;39.25;;
25213;SDS011;13160;51.834;4.706;2023-05-07T07:36:18;44.63;;;38.47;;
25213;SDS011;13160;51.834;4.706;2023-05-07T07:38:48;43.58;;;38.25;;
25213;SDS011;13160;51.834;4.706;2023-05-07T07:41:18;49.42;;;40.88;;
25213;SDS011;13160;51.834;4.706;2023-05-07T07:43:47;49.47;;;40.03;;
25213;SDS011;13160;51.834;4.706;2023-05-07T07:46:15;46.20;;;40.28;;
25213;SDS011;13160;51.834;4.706;2023-05-07T07:48:44;45.15;;;38.30;;
25213;SDS011;13160;51.834;4.706;2023-05-07T07:51:13;46.70;;;39.33;;
25213;SDS011;13160;51.834;4.706;2023-05-07T07:53:41;43.88;;;37.10;;
25213;SDS011;13160;51.834;4.706;2023-05-07T07:56:10;45.80;;;38.33;;
25213;SDS011;13160;51.834;4.706;2023-05-07T07:58:40;43.35;;;37.22;;
25213;SDS011;13160;51.834;4.706;2023-05-07T08:01:08;41.15;;;36.75;;
25213;SDS011;13160;51.834;4.706;2023-05-07T08:03:38;41.08;;;36.10;;
25213;SDS011;13160;51.834;4.706;2023-05-07T08:06:07;42.03;;;35.58;;
25213;SDS011;13160;51.834;4.706;2023-05-07T08:08:39;43.15;;;36.45;;
25213;SDS011;13160;51.834;4.706;2023-05-07T08:11:07;42.83;;;36.55;;
25213;SDS011;13160;51.834;4.706;2023-05-07T08:13:36;44.25;;;35.95;;
25213;SDS011;13160;51.834;4.706;2023-05-07T08:16:07;39.92;;;35.42;;
25213;SDS011;13160;51.834;4.706;2023-05-07T08:18:36;39.30;;;34.92;;
25213;SDS011;13160;51.834;4.706;2023-05-07T08:21:04;42.67;;;38.10;;
25213;SDS011;13160;51.834;4.706;2023-05-07T08:23:33;41.58;;;37.05;;
25213;SDS011;13160;51.834;4.706;2023-05-07T08:26:01;43.20;;;38.53;;
25213;SDS011;13160;51.834;4.706;2023-05-07T08:28:30;43.78;;;37.88;;
25213;SDS011;13160;51.834;4.706;2023-05-07T08:31:00;39.75;;;35.63;;
25213;SDS011;13160;51.834;4.706;2023-05-07T08:33:28;35.10;;;31.42;;
25213;SDS011;13160;51.834;4.706;2023-05-07T08:35:57;37.42;;;31.92;;
25213;SDS011;13160;51.834;4.706;2023-05-07T08:38:26;31.77;;;28.42;;
25213;SDS011;13160;51.834;4.706;2023-05-07T08:40:54;33.05;;;29.55;;
25213;SDS011;13160;51.834;4.706;2023-05-07T08:43:23;31.02;;;27.92;;
25213;SDS011;13160;51.834;4.706;2023-05-07T08:45:55;32.05;;;27.05;;
25213;SDS011;13160;51.834;4.706;2023-05-07T08:48:29;31.25;;;26.75;;
25213;SDS011;13160;51.834;4.706;2023-05-07T08:50:58;33.75;;;28.10;;
25213;SDS011;13160;51.834;4.706;2023-05-07T08:53:27;30.48;;;27.35;;
25213;SDS011;13160;51.834;4.706;2023-05-07T08:55:56;29.45;;;25.83;;
25213;SDS011;13160;51.834;4.706;2023-05-07T08:58:24;27.17;;;24.35;;
25213;SDS011;13160;51.834;4.706;2023-05-07T09:00:53;25.25;;;22.55;;
25213;SDS011;13160;51.834;4.706;2023-05-07T09:03:23;26.83;;;23.90;;
25213;SDS011;13160;51.834;4.706;2023-05-07T09:05:52;26.00;;;23.23;;
25213;SDS011;13160;51.834;4.706;2023-05-07T09:08:23;28.25;;;23.45;;
25213;SDS011;13160;51.834;4.706;2023-05-07T09:10:54;24.25;;;21.55;;
25213;SDS011;13160;51.834;4.706;2023-05-07T09:13:23;25.45;;;21.23;;
25213;SDS011;13160;51.834;4.706;2023-05-07T09:15:51;24.67;;;22.08;;
25213;SDS011;13160;51.834;4.706;2023-05-07T09:18:20;24.83;;;20.85;;
25213;SDS011;13160;51.834;4.706;2023-05-07T09:20:50;18.30;;;14.80;;
25213;SDS011;13160;51.834;4.706;2023-05-07T09:23:19;14.18;;;10.90;;
25213;SDS011;13160;51.834;4.706;2023-05-07T09:25:52;11.60;;;9.52;;
25213;SDS011;13160;51.834;4.706;2023-05-07T09:28:28;11.05;;;8.65;;
25213;SDS011;13160;51.834;4.706;2023-05-07T09:30:59;14.75;;;11.70;;
25213;SDS011;13160;51.834;4.706;2023-05-07T09:33:28;13.40;;;11.30;;
25213;SDS011;13160;51.834;4.706;2023-05-07T09:35:58;12.40;;;10.63;;
25213;SDS011;13160;51.834;4.706;2023-05-07T09:38:30;12.82;;;10.20;;
25213;SDS011;13160;51.834;4.706;2023-05-07T09:41:13;13.63;;;10.38;;
25213;SDS011;13160;51.834;4.706;2023-05-07T09:43:41;12.60;;;10.02;;
25213;SDS011;13160;51.834;4.706;2023-05-07T09:46:11;11.18;;;8.55;;
25213;SDS011;13160;51.834;4.706;2023-05-07T09:48:43;8.95;;;6.57;;
25213;SDS011;13160;51.834;4.706;2023-05-07T09:51:18;10.18;;;8.10;;
25213;SDS011;13160;51.834;4.706;2023-05-07T09:53:53;8.43;;;6.70;;
25213;SDS011;13160;51.834;4.706;2023-05-07T09:56:22;11.07;;;8.07;;
25213;SDS011;13160;51.834;4.706;2023-05-07T09:58:54;10.10;;;7.30;;
25213;SDS011;13160;51.834;4.706;2023-05-07T10:01:29;9.98;;;7.97;;
25213;SDS011;13160;51.834;4.706;2023-05-07T10:04:01;9.07;;;7.10;;
25213;SDS011;13160;51.834;4.706;2023-05-07T10:06:32;11.07;;;6.32;;
25213;SDS011;13160;51.834;4.706;2023-05-07T10:09:01;10.38;;;6.53;;
25213;SDS011;13160;51.834;4.706;2023-05-07T10:11:31;10.55;;;6.40;;
25213;SDS011;13160;51.834;4.706;2023-05-07T10:14:02;11.57;;;8.30;;
25213;SDS011;13160;51.834;4.706;2023-05-07T10:16:32;11.18;;;7.70;;
25213;SDS011;13160;51.834;4.706;2023-05-07T10:19:03;8.02;;;4.95;;
25213;SDS011;13160;51.834;4.706;2023-05-07T10:21:34;11.73;;;7.72;;
25213;SDS011;13160;51.834;4.706;2023-05-07T10:24:05;9.00;;;6.95;;
25213;SDS011;13160;51.834;4.706;2023-05-07T10:26:41;9.60;;;6.57;;
25213;SDS011;13160;51.834;4.706;2023-05-07T10:29:21;13.95;;;11.32;;
25213;SDS011;13160;51.834;4.706;2023-05-07T10:35:14;11.18;;;8.90;;
25213;SDS011;13160;51.834;4.706;2023-05-07T10:37:48;11.52;;;8.43;;
25213;SDS011;13160;51.834;4.706;2023-05-07T10:40:17;12.30;;;8.57;;
25213;SDS011;13160;51.834;4.706;2023-05-07T10:42:55;12.40;;;7.97;;
25213;SDS011;13160;51.834;4.706;2023-05-07T10:45:26;13.00;;;9.23;;
25213;SDS011;13160;51.834;4.706;2023-05-07T10:48:08;14.30;;;8.93;;
25213;SDS011;13160;51.834;4.706;2023-05-07T10:50:41;13.15;;;10.60;;
25213;SDS011;13160;51.834;4.706;2023-05-07T10:53:21;17.35;;;10.02;;
25213;SDS011;13160;51.834;4.706;2023-05-07T10:58:54;15.07;;;9.82;;
25213;SDS011;13160;51.834;4.706;2023-05-07T11:04:21;15.27;;;10.15;;
25213;SDS011;13160;51.834;4.706;2023-05-07T11:10:01;14.30;;;9.00;;
25213;SDS011;13160;51.834;4.706;2023-05-07T11:12:48;11.90;;;8.55;;
25213;SDS011;13160;51.834;4.706;2023-05-07T11:15:36;13.57;;;10.38;;
25213;SDS011;13160;51.834;4.706;2023-05-07T11:18:26;12.52;;;10.23;;
25213;SDS011;13160;51.834;4.706;2023-05-07T11:21:32;10.63;;;8.55;;
25213;SDS011;13160;51.834;4.706;2023-05-07T11:24:07;14.88;;;10.85;;
25213;SDS011;13160;51.834;4.706;2023-05-07T11:26:44;15.48;;;11.02;;
25213;SDS011;13160;51.834;4.706;2023-05-07T11:29:16;13.55;;;11.02;;
25213;SDS011;13160;51.834;4.706;2023-05-07T11:31:48;14.98;;;10.18;;
25213;SDS011;13160;51.834;4.706;2023-05-07T11:34:21;13.48;;;9.80;;
25213;SDS011;13160;51.834;4.706;2023-05-07T11:36:51;18.75;;;10.50;;
25213;SDS011;13160;51.834;4.706;2023-05-07T11:39:24;14.32;;;10.73;;
25213;SDS011;13160;51.834;4.706;2023-05-07T11:41:59;14.63;;;9.48;;
25213;SDS011;13160;51.834;4.706;2023-05-07T11:44:41;12.98;;;8.88;;
25213;SDS011;13160;51.834;4.706;2023-05-07T11:47:16;14.73;;;9.27;;
25213;SDS011;13160;51.834;4.706;2023-05-07T11:49:49;41.60;;;15.75;;
25213;SDS011;13160;51.834;4.706;2023-05-07T11:52:20;17.00;;;11.45;;
25213;SDS011;13160;51.834;4.706;2023-05-07T11:54:51;13.55;;;11.38;;
25213;SDS011;13160;51.834;4.706;2023-05-07T11:57:23;14.68;;;10.98;;
25213;SDS011;13160;51.834;4.706;2023-05-07T11:59:55;18.60;;;11.40;;
25213;SDS011;13160;51.834;4.706;2023-05-07T12:02:24;14.45;;;10.98;;
25213;SDS011;13160;51.834;4.706;2023-05-07T12:04:55;13.18;;;10.75;;
25213;SDS011;13160;51.834;4.706;2023-05-07T12:07:24;13.13;;;9.82;;
25213;SDS011;13160;51.834;4.706;2023-05-07T12:09:53;15.43;;;10.90;;
25213;SDS011;13160;51.834;4.706;2023-05-07T12:12:21;15.52;;;8.55;;
25213;SDS011;13160;51.834;4.706;2023-05-07T12:14:53;13.07;;;9.43;;
25213;SDS011;13160;51.834;4.706;2023-05-07T12:17:21;14.18;;;8.90;;
25213;SDS011;13160;51.834;4.706;2023-05-07T12:19:50;14.48;;;9.35;;
25213;SDS011;13160;51.834;4.706;2023-05-07T12:22:20;11.00;;;7.85;;
25213;SDS011;13160;51.834;4.706;2023-05-07T12:24:56;15.68;;;9.38;;
25213;SDS011;13160;51.834;4.706;2023-05-07T12:27:27;13.30;;;8.63;;
25213;SDS011;13160;51.834;4.706;2023-05-07T12:29:57;13.07;;;8.95;;
25213;SDS011;13160;51.834;4.706;2023-05-07T12:32:26;13.93;;;9.13;;
25213;SDS011;13160;51.834;4.706;2023-05-07T12:34:55;12.93;;;8.95;;
25213;SDS011;13160;51.834;4.706;2023-05-07T12:37:24;16.63;;;10.40;;
25213;SDS011;13160;51.834;4.706;2023-05-07T12:40:03;13.93;;;10.50;;
25213;SDS011;13160;51.834;4.706;2023-05-07T12:42:37;17.40;;;14.05;;
25213;SDS011;13160;51.834;4.706;2023-05-07T12:45:09;18.08;;;14.48;;
25213;SDS011;13160;51.834;4.706;2023-05-07T12:47:39;27.10;;;17.67;;
25213;SDS011;13160;51.834;4.706;2023-05-07T12:50:12;21.00;;;18.08;;
25213;SDS011;13160;51.834;4.706;2023-05-07T12:52:48;20.42;;;17.17;;
25213;SDS011;13160;51.834;4.706;2023-05-07T12:55:16;20.25;;;16.00;;
25213;SDS011;13160;51.834;4.706;2023-05-07T12:57:47;17.50;;;13.65;;
25213;SDS011;13160;51.834;4.706;2023-05-07T13:00:17;17.20;;;13.23;;
25213;SDS011;13160;51.834;4.706;2023-05-07T13:03:00;17.10;;;10.32;;
25213;SDS011;13160;51.834;4.706;2023-05-07T13:05:31;15.30;;;10.38;;
25213;SDS011;13160;51.834;4.706;2023-05-07T13:08:00;14.75;;;9.75;;
25213;SDS011;13160;51.834;4.706;2023-05-07T13:10:31;15.27;;;9.55;;
25213;SDS011;13160;51.834;4.706;2023-05-07T13:13:15;11.30;;;8.32;;
25213;SDS011;13160;51.834;4.706;2023-05-07T13:15:44;12.02;;;7.65;;
25213;SDS011;13160;51.834;4.706;2023-05-07T13:18:14;13.80;;;8.75;;
25213;SDS011;13160;51.834;4.706;2023-05-07T13:20:43;11.18;;;8.45;;
25213;SDS011;13160;51.834;4.706;2023-05-07T13:23:14;12.13;;;8.75;;
25213;SDS011;13160;51.834;4.706;2023-05-07T13:25:42;11.10;;;8.13;;
25213;SDS011;13160;51.834;4.706;2023-05-07T13:28:12;12.85;;;7.97;;
25213;SDS011;13160;51.834;4.706;2023-05-07T13:30:42;11.45;;;8.45;;
25213;SDS011;13160;51.834;4.706;2023-05-07T13:33:13;12.95;;;9.60;;
25213;SDS011;13160;51.834;4.706;2023-05-07T13:35:43;14.30;;;10.60;;
25213;SDS011;13160;51.834;4.706;2023-05-07T13:38:14;14.15;;;11.10;;
25213;SDS011;13160;51.834;4.706;2023-05-07T13:40:43;17.75;;;12.88;;
25213;SDS011;13160;51.834;4.706;2023-05-07T13:43:12;18.73;;;13.63;;
25213;SDS011;13160;51.834;4.706;2023-05-07T13:45:40;21.98;;;15.02;;
25213;SDS011;13160;51.834;4.706;2023-05-07T13:48:13;17.50;;;15.13;;
25213;SDS011;13160;51.834;4.706;2023-05-07T13:50:42;25.00;;;16.02;;
25213;SDS011;13160;51.834;4.706;2023-05-07T13:53:10;18.20;;;15.90;;
25213;SDS011;13160;51.834;4.706;2023-05-07T13:55:39;21.02;;;16.20;;
25213;SDS011;13160;51.834;4.706;2023-05-07T13:58:08;18.80;;;16.65;;
25213;SDS011;13160;51.834;4.706;2023-05-07T14:00:36;20.08;;;14.48;;
25213;SDS011;13160;51.834;4.706;2023-05-07T14:03:06;19.38;;;16.20;;
25213;SDS011;13160;51.834;4.706;2023-05-07T14:05:35;21.48;;;17.83;;
25213;SDS011;13160;51.834;4.706;2023-05-07T14:08:03;18.23;;;16.15;;
25213;SDS011;13160;51.834;4.706;2023-05-07T14:10:34;20.10;;;16.40;;
25213;SDS011;13160;51.834;4.706;2023-05-07T14:13:02;19.83;;;14.77;;
25213;SDS011;13160;51.834;4.706;2023-05-07T14:15:31;18.75;;;16.85;;
25213;SDS011;13160;51.834;4.706;2023-05-07T14:17:59;20.20;;;17.80;;
25213;SDS011;13160;51.834;4.706;2023-05-07T14:20:29;25.50;;;21.00;;
25213;SDS011;13160;51.834;4.706;2023-05-07T14:22:58;26.92;;;22.65;;
25213;SDS011;13160;51.834;4.706;2023-05-07T14:25:26;24.75;;;21.70;;
25213;SDS011;13160;51.834;4.706;2023-05-07T14:27:55;25.00;;;22.55;;
25213;SDS011;13160;51.834;4.706;2023-05-07T14:30:23;26.10;;;23.35;;
25213;SDS011;13160;51.834;4.706;2023-05-07T14:32:52;25.77;;;23.00;;
25213;SDS011;13160;51.834;4.706;2023-05-07T14:35:21;28.40;;;25.40;;
25213;SDS011;13160;51.834;4.706;2023-05-07T14:37:51;27.10;;;23.08;;
25213;SDS011;13160;51.834;4.706;2023-05-07T14:40:21;30.88;;;27.55;;
25213;SDS011;13160;51.834;4.706;2023-05-07T14:42:49;36.08;;;30.73;;
25213;SDS011;13160;51.834;4.706;2023-05-07T14:45:18;35.30;;;31.55;;
25213;SDS011;13160;51.834;4.706;2023-05-07T14:47:46;41.33;;;35.25;;
25213;SDS011;13160;51.834;4.706;2023-05-07T14:50:15;36.63;;;32.63;;
25213;SDS011;13160;51.834;4.706;2023-05-07T14:52:44;39.28;;;33.10;;